Alma, New Mexico
Current Conditions -  °F | °C
As of 1:15 AM on Thursday 27 Nov 2014 (Local Time) from KSVC Reporting Station
Clear Clear  
Wind Chill: 32°   Ceiling: Unl
Heat Index: 36°   Visibility: 10mi
Dew Point: 18°   Wind: 5mph
Humidity: 48%   Direction: 320°NW
Pressure: 30.41"   Gusts: NA
Location:  33.3051°N, 108.67°W
Report Text: KSVC 270815Z AUTO 32004KT 10SM CLR 02/M08 A3041 RMK AO2
Loading
Personal Weather Stations






























Interactive Weather Map New forecast layout! Learn more

10-Day Weather Forecast

Advertisements
Track Severe Weather on mobile